Time;durP1;ratioP1;P1;durP2;ratioP2;P2;SDS_P1;SDS_P2;PMS_P1;PMS_P2;Temp;Humidity;BMP_temperature;BMP_pressure;BME280_temperature;BME280_humidity;BME280_pressure;Samples;Min_cycle;Max_cycle;Signal;HPM_P1;HPM_P2
2023/08/31 00:02:10;;;;;;;2.70;2.50;;;;;;;;;;5106706;28;20051;-76
2023/08/31 00:04:35;;;;;;;2.67;2.47;;;;;;;;;;5109139;28;20513;-77
2023/08/31 00:07:01;;;;;;;2.42;2.22;;;;;;;;;;5103076;28;20032;-77
2023/08/31 00:09:26;;;;;;;4.68;2.63;;;;;;;;;;5107021;28;20440;-76
2023/08/31 00:11:52;;;;;;;2.83;2.53;;;;;;;;;;5104933;28;20023;-77
2023/08/31 00:14:17;;;;;;;2.20;2.00;;;;;;;;;;5109033;28;20438;-77
2023/08/31 00:16:45;;;;;;;2.67;2.47;;;;;;;;;;5102933;28;20429;-77
2023/08/31 00:19:10;;;;;;;3.00;2.50;;;;;;;;;;5107997;28;20055;-77
2023/08/31 00:21:36;;;;;;;7.43;2.55;;;;;;;;;;5097388;28;20058;-78
2023/08/31 00:24:01;;;;;;;2.42;2.28;;;;;;;;;;5100275;28;20055;-77
2023/08/31 00:26:27;;;;;;;2.30;2.10;;;;;;;;;;5106873;28;20023;-77
2023/08/31 00:28:52;;;;;;;3.05;2.22;;;;;;;;;;5106726;28;20055;-77
2023/08/31 00:31:18;;;;;;;3.13;2.67;;;;;;;;;;5105588;28;20054;-75
2023/08/31 00:33:44;;;;;;;4.13;3.00;;;;;;;;;;5097948;28;20032;-78
2023/08/31 00:36:09;;;;;;;3.08;2.60;;;;;;;;;;5104593;28;20020;-77
2023/08/31 00:38:35;;;;;;;4.53;2.75;;;;;;;;;;5103782;28;20042;-77
2023/08/31 00:41:01;;;;;;;3.13;2.80;;;;;;;;;;5101102;28;20064;-76
2023/08/31 00:43:27;;;;;;;4.20;2.28;;;;;;;;;;5103016;28;20027;-77
2023/08/31 00:45:58;;;;;;;2.60;2.40;;;;;;;;;;5107215;28;20038;-77
2023/08/31 00:48:24;;;;;;;2.50;2.30;;;;;;;;;;5097934;28;20047;-77
2023/08/31 00:50:50;;;;;;;2.50;2.30;;;;;;;;;;5102342;28;20020;-77
2023/08/31 00:53:17;;;;;;;2.10;2.00;;;;;;;;;;5096432;28;20036;-77
2023/08/31 00:55:44;;;;;;;2.20;2.10;;;;;;;;;;5104828;28;20048;-77
2023/08/31 00:58:10;;;;;;;2.50;2.30;;;;;;;;;;5102341;28;20066;-77
2023/08/31 01:00:54;;;;;;;2.00;1.90;;;;;;;;;;5099227;28;20036;-77
2023/08/31 01:03:39;;;;;;;2.20;2.10;;;;;;;;;;5099501;28;20023;-76
2023/08/31 01:06:09;;;;;;;2.05;1.95;;;;;;;;;;5105428;28;20030;-77
2023/08/31 01:08:53;;;;;;;3.17;2.28;;;;;;;;;;5103802;28;20088;-76
2023/08/31 01:11:26;;;;;;;2.90;2.30;;;;;;;;;;5109489;28;20606;-77
2023/08/31 01:14:01;;;;;;;2.05;1.92;;;;;;;;;;5105522;28;20060;-77
2023/08/31 01:16:27;;;;;;;2.45;2.25;;;;;;;;;;5102467;28;20114;-77
2023/08/31 01:18:53;;;;;;;3.25;2.30;;;;;;;;;;5100674;28;20043;-77
2023/08/31 01:21:30;;;;;;;2.60;2.40;;;;;;;;;;5105108;28;20100;-76
2023/08/31 01:23:57;;;;;;;2.60;2.40;;;;;;;;;;5098843;28;20020;-76
2023/08/31 01:26:24;;;;;;;2.78;2.58;;;;;;;;;;5104587;28;20397;-77
2023/08/31 01:28:50;;;;;;;2.88;2.67;;;;;;;;;;5104143;28;20112;-77
2023/08/31 01:31:16;;;;;;;3.35;2.58;;;;;;;;;;5101196;28;20560;-77
2023/08/31 01:33:42;;;;;;;2.35;2.17;;;;;;;;;;5106477;28;20036;-77
2023/08/31 01:36:17;;;;;;;2.97;2.40;;;;;;;;;;5100824;28;20045;-77
2023/08/31 01:38:45;;;;;;;3.63;2.20;;;;;;;;;;5102486;28;20495;-76
2023/08/31 01:41:14;;;;;;;6.03;2.35;;;;;;;;;;5106242;28;20494;-77
2023/08/31 01:43:40;;;;;;;2.20;2.10;;;;;;;;;;5100157;28;20061;-76
2023/08/31 01:46:07;;;;;;;2.13;2.00;;;;;;;;;;5099495;28;20024;-76
2023/08/31 01:48:38;;;;;;;3.67;1.95;;;;;;;;;;5099629;28;20080;-76
2023/08/31 01:51:04;;;;;;;2.83;2.20;;;;;;;;;;5100805;28;20375;-75
2023/08/31 01:53:30;;;;;;;2.28;2.10;;;;;;;;;;5098805;28;20016;-76
2023/08/31 01:55:55;;;;;;;2.22;2.13;;;;;;;;;;5098212;28;20044;-76
2023/08/31 01:58:22;;;;;;;2.45;2.00;;;;;;;;;;5103493;28;20028;-76
2023/08/31 02:00:48;;;;;;;2.38;2.17;;;;;;;;;;5101039;28;20040;-76
2023/08/31 02:03:13;;;;;;;3.40;2.15;;;;;;;;;;5100343;28;20012;-76
2023/08/31 02:05:39;;;;;;;3.03;2.33;;;;;;;;;;5096736;28;20055;-75
2023/08/31 02:08:04;;;;;;;4.30;2.28;;;;;;;;;;5100757;28;20038;-75
2023/08/31 02:10:29;;;;;;;3.13;2.20;;;;;;;;;;5101826;28;20238;-77
2023/08/31 02:12:55;;;;;;;2.63;2.40;;;;;;;;;;5098381;28;20032;-77
2023/08/31 02:15:20;;;;;;;4.55;2.42;;;;;;;;;;5108357;28;20547;-79
2023/08/31 02:17:45;;;;;;;2.80;2.60;;;;;;;;;;5100708;28;20024;-76
2023/08/31 02:20:11;;;;;;;2.85;2.30;;;;;;;;;;5105530;28;20066;-77
2023/08/31 02:22:37;;;;;;;5.68;2.60;;;;;;;;;;5103364;28;20047;-77
2023/08/31 02:25:02;;;;;;;2.40;1.92;;;;;;;;;;5102243;28;20035;-75
2023/08/31 02:27:28;;;;;;;3.20;2.17;;;;;;;;;;5102442;28;20039;-76
2023/08/31 02:29:53;;;;;;;3.53;2.47;;;;;;;;;;5106497;28;20020;-76
2023/08/31 02:32:19;;;;;;;4.03;2.20;;;;;;;;;;5104978;28;20032;-78
2023/08/31 02:34:44;;;;;;;3.80;2.22;;;;;;;;;;5102777;28;20058;-77
2023/08/31 02:37:10;;;;;;;2.70;2.25;;;;;;;;;;5106168;28;20032;-75
2023/08/31 02:39:35;;;;;;;9.43;2.50;;;;;;;;;;5103319;28;20032;-77
2023/08/31 02:42:01;;;;;;;3.65;2.47;;;;;;;;;;5102252;28;20028;-78
2023/08/31 02:44:26;;;;;;;2.50;2.30;;;;;;;;;;5106417;28;20039;-76
2023/08/31 02:46:51;;;;;;;4.65;3.25;;;;;;;;;;5097828;28;20084;-77
2023/08/31 02:49:17;;;;;;;2.80;2.60;;;;;;;;;;5100291;28;20096;-75
2023/08/31 02:51:42;;;;;;;2.72;2.53;;;;;;;;;;5107801;28;20562;-75
2023/08/31 02:54:07;;;;;;;3.63;3.00;;;;;;;;;;5106805;27;20020;-77
2023/08/31 02:56:33;;;;;;;5.03;3.22;;;;;;;;;;5103486;28;20328;-73
2023/08/31 02:58:58;;;;;;;3.42;2.50;;;;;;;;;;5107362;28;20032;-76
2023/08/31 03:01:24;;;;;;;3.45;2.88;;;;;;;;;;5101179;28;20032;-76
2023/08/31 03:03:49;;;;;;;9.38;2.90;;;;;;;;;;5101932;28;20144;-75
2023/08/31 03:06:15;;;;;;;3.95;3.33;;;;;;;;;;5105802;28;20024;-75
2023/08/31 03:08:40;;;;;;;2.95;2.75;;;;;;;;;;5101234;28;20030;-74
2023/08/31 03:11:06;;;;;;;2.38;2.22;;;;;;;;;;5098300;28;20505;-76
2023/08/31 03:13:32;;;;;;;3.55;2.95;;;;;;;;;;5100170;28;20042;-74
2023/08/31 03:15:59;;;;;;;2.80;2.60;;;;;;;;;;5106448;28;20051;-76
2023/08/31 03:18:24;;;;;;;3.15;2.70;;;;;;;;;;5101234;28;20371;-75
2023/08/31 03:20:49;;;;;;;2.78;2.58;;;;;;;;;;5098481;28;20084;-74
2023/08/31 03:23:15;;;;;;;2.75;2.55;;;;;;;;;;5101498;28;20036;-74
2023/08/31 03:25:40;;;;;;;3.17;2.67;;;;;;;;;;5102183;28;20135;-74
2023/08/31 03:28:06;;;;;;;2.70;2.50;;;;;;;;;;5103854;28;20397;-74
2023/08/31 03:30:31;;;;;;;2.58;2.33;;;;;;;;;;5102116;28;20034;-73
2023/08/31 03:32:57;;;;;;;2.70;2.50;;;;;;;;;;5097370;28;20054;-74
2023/08/31 03:35:28;;;;;;;2.75;2.50;;;;;;;;;;5104487;28;20031;-74
2023/08/31 03:37:55;;;;;;;3.15;2.72;;;;;;;;;;5097459;28;20529;-75
2023/08/31 03:40:20;;;;;;;2.50;2.30;;;;;;;;;;5105592;28;20023;-75
2023/08/31 03:42:45;;;;;;;3.17;2.85;;;;;;;;;;5096270;28;20048;-76
2023/08/31 03:45:11;;;;;;;4.93;3.20;;;;;;;;;;5104221;27;20027;-75
2023/08/31 03:47:37;;;;;;;3.10;2.80;;;;;;;;;;5100439;28;20477;-75
2023/08/31 03:50:02;;;;;;;4.30;3.15;;;;;;;;;;5108979;27;20043;-75
2023/08/31 03:52:28;;;;;;;3.80;2.85;;;;;;;;;;5103395;28;20028;-77
2023/08/31 03:54:53;;;;;;;2.70;2.50;;;;;;;;;;5102821;27;20055;-76
2023/08/31 03:57:20;;;;;;;3.88;2.70;;;;;;;;;;5107331;28;20016;-77
2023/08/31 03:59:45;;;;;;;3.30;2.58;;;;;;;;;;5104788;28;20023;-76
2023/08/31 04:02:10;;;;;;;3.13;2.83;;;;;;;;;;5101663;28;20558;-76
2023/08/31 04:04:36;;;;;;;3.00;2.53;;;;;;;;;;5106208;28;20031;-77
2023/08/31 04:07:01;;;;;;;2.65;2.45;;;;;;;;;;5099612;28;20573;-78
2023/08/31 04:09:26;;;;;;;3.17;2.30;;;;;;;;;;5100882;28;20043;-77
2023/08/31 04:11:51;;;;;;;3.22;2.47;;;;;;;;;;5103901;28;20016;-77
2023/08/31 04:14:18;;;;;;;2.63;2.33;;;;;;;;;;5101543;28;20024;-77
2023/08/31 04:16:44;;;;;;;5.30;2.75;;;;;;;;;;5102908;28;20034;-77
2023/08/31 04:19:09;;;;;;;9.32;2.38;;;;;;;;;;5100525;28;20043;-77
2023/08/31 04:21:34;;;;;;;3.08;2.40;;;;;;;;;;5103570;28;20040;-77
2023/08/31 04:24:00;;;;;;;2.80;2.35;;;;;;;;;;5101449;28;20019;-77
2023/08/31 04:26:25;;;;;;;3.10;2.50;;;;;;;;;;5112925;28;20053;-77
2023/08/31 04:28:50;;;;;;;2.92;2.72;;;;;;;;;;5109221;28;20366;-77
2023/08/31 04:31:16;;;;;;;3.03;2.80;;;;;;;;;;5100267;28;20111;-77
2023/08/31 04:33:41;;;;;;;5.82;3.00;;;;;;;;;;5102449;28;20039;-77
2023/08/31 04:36:06;;;;;;;2.75;2.55;;;;;;;;;;5103233;28;20537;-77
2023/08/31 04:38:33;;;;;;;3.50;2.78;;;;;;;;;;5102022;28;20027;-77
2023/08/31 04:40:59;;;;;;;3.25;2.95;;;;;;;;;;5095797;28;20033;-77
2023/08/31 04:43:25;;;;;;;3.95;3.17;;;;;;;;;;5101790;28;20101;-77
2023/08/31 04:45:54;;;;;;;3.22;2.92;;;;;;;;;;5102209;28;20158;-77
2023/08/31 04:48:19;;;;;;;4.32;3.38;;;;;;;;;;5106955;28;20016;-77
2023/08/31 04:50:45;;;;;;;3.83;3.40;;;;;;;;;;5108554;28;20119;-77
2023/08/31 04:53:10;;;;;;;4.63;3.45;;;;;;;;;;5104888;28;20047;-77
2023/08/31 04:55:35;;;;;;;7.63;3.03;;;;;;;;;;5107231;28;20038;-77
2023/08/31 04:58:01;;;;;;;3.85;3.42;;;;;;;;;;5104330;28;20119;-78
2023/08/31 05:00:26;;;;;;;4.43;3.45;;;;;;;;;;5108203;28;20559;-76
2023/08/31 05:02:51;;;;;;;3.40;3.10;;;;;;;;;;5104096;28;20015;-78
2023/08/31 05:05:18;;;;;;;4.63;3.90;;;;;;;;;;5101476;28;20032;-77
2023/08/31 05:07:44;;;;;;;3.50;3.22;;;;;;;;;;5103211;28;20060;-77
2023/08/31 05:10:09;;;;;;;7.93;3.20;;;;;;;;;;5101787;28;20132;-77
2023/08/31 05:12:35;;;;;;;3.72;3.42;;;;;;;;;;5107866;28;20554;-77
2023/08/31 05:15:00;;;;;;;3.63;3.22;;;;;;;;;;5098033;28;20470;-77
2023/08/31 05:17:25;;;;;;;3.85;3.45;;;;;;;;;;5107080;28;21262;-77
2023/08/31 05:19:51;;;;;;;5.13;3.63;;;;;;;;;;5104866;28;20039;-76
2023/08/31 05:22:17;;;;;;;6.30;4.00;;;;;;;;;;5108437;28;20031;-78
2023/08/31 05:24:42;;;;;;;5.10;3.92;;;;;;;;;;5105756;28;20036;-78
2023/08/31 05:27:08;;;;;;;5.97;3.97;;;;;;;;;;5104839;28;20509;-77
2023/08/31 05:29:33;;;;;;;5.20;4.35;;;;;;;;;;5106943;28;20031;-78
2023/08/31 05:31:58;;;;;;;4.97;4.47;;;;;;;;;;5103090;28;20668;-77
2023/08/31 05:34:24;;;;;;;7.10;4.47;;;;;;;;;;5107877;28;20031;-77
2023/08/31 05:36:50;;;;;;;5.18;4.55;;;;;;;;;;5105032;28;20483;-78
2023/08/31 05:39:18;;;;;;;6.55;4.43;;;;;;;;;;5098015;28;20024;-76
2023/08/31 05:41:43;;;;;;;5.45;4.35;;;;;;;;;;5103781;28;20026;-76
2023/08/31 05:44:10;;;;;;;6.35;4.90;;;;;;;;;;5100771;28;20035;-76
2023/08/31 05:46:35;;;;;;;5.00;4.53;;;;;;;;;;5101651;28;20100;-76
2023/08/31 05:49:00;;;;;;;7.50;5.03;;;;;;;;;;5096399;28;20031;-75
2023/08/31 05:51:26;;;;;;;9.15;4.60;;;;;;;;;;5105605;28;20058;-77
2023/08/31 05:53:51;;;;;;;7.70;4.38;;;;;;;;;;5105636;28;20473;-78
2023/08/31 05:56:18;;;;;;;5.20;4.70;;;;;;;;;;5106662;28;20023;-78
2023/08/31 05:58:44;;;;;;;9.80;5.22;;;;;;;;;;5106032;28;20024;-77
2023/08/31 06:01:09;;;;;;;4.65;4.13;;;;;;;;;;5102668;28;20024;-76
2023/08/31 06:03:35;;;;;;;5.35;4.85;;;;;;;;;;5101010;28;20032;-76
2023/08/31 06:06:02;;;;;;;6.65;4.75;;;;;;;;;;5100138;28;20481;-77
2023/08/31 06:08:27;;;;;;;5.45;4.68;;;;;;;;;;5103699;28;20116;-76
2023/08/31 06:10:52;;;;;;;7.78;5.07;;;;;;;;;;5104606;28;20092;-76
2023/08/31 06:13:18;;;;;;;6.15;5.47;;;;;;;;;;5104838;28;20383;-77
2023/08/31 06:15:44;;;;;;;7.05;5.38;;;;;;;;;;5103834;28;20488;-76
2023/08/31 06:18:10;;;;;;;5.43;4.80;;;;;;;;;;5100539;28;20040;-76
2023/08/31 06:20:35;;;;;;;7.03;4.80;;;;;;;;;;5104331;28;20051;-76
2023/08/31 06:23:01;;;;;;;5.25;4.68;;;;;;;;;;5104548;28;20044;-76
2023/08/31 06:25:27;;;;;;;5.20;3.90;;;;;;;;;;5102558;28;20024;-76
2023/08/31 06:27:53;;;;;;;3.70;3.33;;;;;;;;;;5107386;28;20039;-76
2023/08/31 06:30:18;;;;;;;4.28;3.58;;;;;;;;;;5105077;28;20068;-76
2023/08/31 06:32:44;;;;;;;4.95;3.58;;;;;;;;;;5103164;28;20091;-76
2023/08/31 06:35:15;;;;;;;6.68;3.60;;;;;;;;;;5103052;28;20032;-77
2023/08/31 06:37:40;;;;;;;4.22;3.35;;;;;;;;;;5106355;28;20505;-77
2023/08/31 06:40:08;;;;;;;4.07;3.67;;;;;;;;;;5104583;28;20024;-77
2023/08/31 06:42:34;;;;;;;4.55;3.90;;;;;;;;;;5106014;28;20379;-76
2023/08/31 06:44:59;;;;;;;6.53;3.25;;;;;;;;;;5102420;28;20088;-76
2023/08/31 06:47:24;;;;;;;4.00;3.60;;;;;;;;;;5101292;28;20035;-76
2023/08/31 06:49:50;;;;;;;3.50;3.20;;;;;;;;;;5099923;28;20081;-76
2023/08/31 06:52:16;;;;;;;4.20;3.70;;;;;;;;;;5099942;28;20078;-77
2023/08/31 06:54:41;;;;;;;3.88;3.25;;;;;;;;;;5096777;28;20036;-76
2023/08/31 06:57:07;;;;;;;5.57;3.75;;;;;;;;;;5085891;28;20111;-76
2023/08/31 06:59:32;;;;;;;7.88;6.43;;;;;;;;;;5096776;28;20346;-77
2023/08/31 07:01:58;;;;;;;7.00;6.15;;;;;;;;;;5099031;28;20044;-76
2023/08/31 07:04:23;;;;;;;5.18;4.70;;;;;;;;;;5095072;28;21836;-77
2023/08/31 07:06:48;;;;;;;6.78;5.78;;;;;;;;;;5107456;28;20497;-76
2023/08/31 07:09:13;;;;;;;6.93;4.80;;;;;;;;;;5102442;28;20027;-77
2023/08/31 07:11:39;;;;;;;4.65;4.25;;;;;;;;;;5105161;28;20024;-77
2023/08/31 07:14:04;;;;;;;4.60;3.60;;;;;;;;;;5105775;28;20354;-77
2023/08/31 07:16:29;;;;;;;4.32;3.92;;;;;;;;;;5101432;28;20118;-77
2023/08/31 07:18:55;;;;;;;5.20;3.75;;;;;;;;;;5099103;28;20043;-76
2023/08/31 07:21:20;;;;;;;4.68;4.03;;;;;;;;;;5108498;28;20052;-77
2023/08/31 07:23:45;;;;;;;7.07;3.90;;;;;;;;;;5104192;28;20093;-78
2023/08/31 07:26:11;;;;;;;5.15;3.90;;;;;;;;;;5098745;28;20614;-76
2023/08/31 07:28:36;;;;;;;4.75;3.65;;;;;;;;;;5102670;27;20028;-77
2023/08/31 07:31:03;;;;;;;4.82;3.00;;;;;;;;;;5103096;28;20062;-77
2023/08/31 07:33:31;;;;;;;4.25;3.03;;;;;;;;;;5106056;28;20085;-77
2023/08/31 07:35:56;;;;;;;7.15;3.75;;;;;;;;;;5102108;28;20562;-77
2023/08/31 07:38:21;;;;;;;6.38;2.78;;;;;;;;;;5103108;28;20047;-76
2023/08/31 07:40:46;;;;;;;3.38;3.08;;;;;;;;;;5100104;28;20035;-76
2023/08/31 07:43:12;;;;;;;4.03;2.70;;;;;;;;;;5095419;28;20414;-77
2023/08/31 07:45:37;;;;;;;3.88;2.65;;;;;;;;;;5098256;28;20048;-78
2023/08/31 07:48:03;;;;;;;5.05;2.60;;;;;;;;;;5103038;28;20110;-77
2023/08/31 07:50:28;;;;;;;3.50;2.10;;;;;;;;;;5101019;28;20039;-76
2023/08/31 07:52:53;;;;;;;2.88;1.95;;;;;;;;;;5103693;28;20043;-76
2023/08/31 07:55:19;;;;;;;4.00;2.33;;;;;;;;;;5099625;28;20060;-77
2023/08/31 07:57:44;;;;;;;2.08;1.90;;;;;;;;;;5100687;28;20036;-77
2023/08/31 08:00:09;;;;;;;1.67;1.52;;;;;;;;;;5091462;28;20028;-77
2023/08/31 08:02:35;;;;;;;2.47;1.90;;;;;;;;;;5098931;28;20085;-77
2023/08/31 08:05:00;;;;;;;1.77;1.67;;;;;;;;;;5104009;28;20030;-77
2023/08/31 08:07:25;;;;;;;2.55;1.75;;;;;;;;;;5106874;28;20034;-77
2023/08/31 08:09:51;;;;;;;2.13;1.38;;;;;;;;;;5099991;28;20036;-76
2023/08/31 08:12:16;;;;;;;2.63;2.08;;;;;;;;;;5099350;28;20020;-77
2023/08/31 08:14:41;;;;;;;2.13;1.80;;;;;;;;;;5098216;28;20111;-76
2023/08/31 08:17:06;;;;;;;1.80;1.60;;;;;;;;;;5100331;28;20035;-77
2023/08/31 08:19:32;;;;;;;1.30;1.30;;;;;;;;;;5101904;28;20047;-77
2023/08/31 08:21:57;;;;;;;1.80;1.70;;;;;;;;;;5106182;28;20432;-77
2023/08/31 08:24:22;;;;;;;2.25;1.65;;;;;;;;;;5100804;28;20068;-77
2023/08/31 08:26:47;;;;;;;2.13;1.42;;;;;;;;;;5097258;28;20065;-77
2023/08/31 08:29:13;;;;;;;1.98;1.40;;;;;;;;;;5096547;28;20118;-76
2023/08/31 08:31:38;;;;;;;3.00;1.42;;;;;;;;;;5103299;28;20125;-76
2023/08/31 08:34:03;;;;;;;1.52;1.42;;;;;;;;;;5098664;28;20032;-77
2023/08/31 08:36:29;;;;;;;1.60;1.50;;;;;;;;;;5089818;28;20044;-77
2023/08/31 08:38:54;;;;;;;1.60;1.50;;;;;;;;;;5092642;28;20035;-77
2023/08/31 08:41:23;;;;;;;2.33;1.33;;;;;;;;;;5096270;28;20033;-77
2023/08/31 08:43:49;;;;;;;1.50;1.40;;;;;;;;;;5094868;28;20446;-77
2023/08/31 08:46:14;;;;;;;2.90;1.55;;;;;;;;;;5098217;28;20039;-77
2023/08/31 08:48:41;;;;;;;1.73;1.45;;;;;;;;;;5104352;28;20039;-77
2023/08/31 08:51:07;;;;;;;1.50;1.40;;;;;;;;;;5103091;28;20035;-77
2023/08/31 08:53:33;;;;;;;1.88;1.38;;;;;;;;;;5101998;28;20533;-77
2023/08/31 08:55:58;;;;;;;1.50;1.40;;;;;;;;;;5095895;28;20485;-77
2023/08/31 08:58:23;;;;;;;5.03;1.30;;;;;;;;;;5095171;28;20031;-77
2023/08/31 09:00:50;;;;;;;1.35;1.23;;;;;;;;;;5096784;28;20058;-78
2023/08/31 09:03:16;;;;;;;1.42;1.33;;;;;;;;;;5092533;28;20024;-77
2023/08/31 09:05:41;;;;;;;1.83;1.20;;;;;;;;;;5099052;28;20080;-78
2023/08/31 09:08:12;;;;;;;1.90;1.35;;;;;;;;;;5093855;28;20055;-77
2023/08/31 09:10:43;;;;;;;1.58;1.35;;;;;;;;;;5093165;28;20039;-77
2023/08/31 09:13:13;;;;;;;1.30;1.20;;;;;;;;;;5091545;28;20049;-76
2023/08/31 09:15:43;;;;;;;1.60;1.50;;;;;;;;;;5083513;28;20097;-77
2023/08/31 09:18:22;;;;;;;2.45;1.30;;;;;;;;;;5092503;28;20143;-77
2023/08/31 09:20:47;;;;;;;1.55;1.45;;;;;;;;;;5096686;28;20111;-77
2023/08/31 09:23:17;;;;;;;1.30;1.20;;;;;;;;;;5092864;28;20131;-77
2023/08/31 09:25:52;;;;;;;1.63;1.52;;;;;;;;;;5094017;28;20043;-77
2023/08/31 09:28:20;;;;;;;1.13;1.13;;;;;;;;;;5096526;28;20120;-77
2023/08/31 09:30:49;;;;;;;1.30;1.20;;;;;;;;;;5100449;28;20051;-77
2023/08/31 09:33:16;;;;;;;5.28;1.52;;;;;;;;;;5098818;28;20016;-77
2023/08/31 09:35:53;;;;;;;1.30;1.27;;;;;;;;;;5096276;28;20020;-77
2023/08/31 09:38:19;;;;;;;2.78;1.52;;;;;;;;;;5089669;28;20028;-77
2023/08/31 09:40:45;;;;;;;1.50;1.23;;;;;;;;;;5090117;28;20430;-77
2023/08/31 09:43:10;;;;;;;2.22;1.90;;;;;;;;;;5093048;28;20047;-77
2023/08/31 09:45:37;;;;;;;8.10;1.60;;;;;;;;;;5102022;28;20031;-77
2023/08/31 09:48:04;;;;;;;1.30;1.20;;;;;;;;;;5093368;28;20027;-77
2023/08/31 09:50:30;;;;;;;1.90;1.30;;;;;;;;;;5094365;28;20035;-77
2023/08/31 09:53:03;;;;;;;1.83;1.35;;;;;;;;;;5091978;28;20036;-77
2023/08/31 09:55:30;;;;;;;2.22;1.30;;;;;;;;;;5103568;28;20032;-77
2023/08/31 09:58:00;;;;;;;6.55;1.30;;;;;;;;;;5102839;28;20036;-76
2023/08/31 10:00:26;;;;;;;1.92;1.42;;;;;;;;;;5102785;28;20039;-78
2023/08/31 10:02:55;;;;;;;10.30;1.33;;;;;;;;;;5108185;28;20526;-77
2023/08/31 10:05:21;;;;;;;2.03;1.80;;;;;;;;;;5102096;28;20032;-77
2023/08/31 10:07:47;;;;;;;2.78;1.52;;;;;;;;;;5104333;28;20043;-77
2023/08/31 10:10:13;;;;;;;1.80;1.33;;;;;;;;;;5105087;28;20031;-76
2023/08/31 10:12:40;;;;;;;6.63;1.67;;;;;;;;;;5102561;28;20079;-76
2023/08/31 10:15:06;;;;;;;1.17;1.13;;;;;;;;;;5103073;28;20059;-77
2023/08/31 10:17:32;;;;;;;1.80;1.40;;;;;;;;;;5105319;28;20047;-77
2023/08/31 10:19:57;;;;;;;2.25;1.50;;;;;;;;;;5105495;28;20038;-76
2023/08/31 10:22:23;;;;;;;1.48;1.33;;;;;;;;;;5103889;28;20036;-77
2023/08/31 10:25:03;;;;;;;2.15;1.70;;;;;;;;;;5106189;28;20537;-77
2023/08/31 10:27:36;;;;;;;4.15;1.55;;;;;;;;;;5102730;28;20050;-77
2023/08/31 10:30:14;;;;;;;4.05;1.70;;;;;;;;;;5103905;28;20047;-77
2023/08/31 10:32:39;;;;;;;2.40;1.70;;;;;;;;;;5100485;28;20071;-77
2023/08/31 10:35:07;;;;;;;3.97;1.90;;;;;;;;;;5105611;28;20066;-76
2023/08/31 10:37:33;;;;;;;3.08;1.67;;;;;;;;;;5108029;28;20039;-77
2023/08/31 10:40:14;;;;;;;4.20;1.60;;;;;;;;;;5108192;28;20050;-77
2023/08/31 10:42:47;;;;;;;4.60;1.60;;;;;;;;;;5108549;28;20047;-77
2023/08/31 10:45:13;;;;;;;3.53;1.58;;;;;;;;;;5107587;27;20027;-77
2023/08/31 10:47:40;;;;;;;1.60;1.50;;;;;;;;;;5107610;28;20034;-77
2023/08/31 10:50:23;;;;;;;1.67;1.52;;;;;;;;;;5106617;28;20031;-77
2023/08/31 10:52:49;;;;;;;2.40;1.77;;;;;;;;;;5106637;28;20130;-77
2023/08/31 10:55:14;;;;;;;2.60;1.50;;;;;;;;;;5102484;28;20119;-77
2023/08/31 10:57:40;;;;;;;2.30;1.52;;;;;;;;;;5109757;28;20049;-77
2023/08/31 11:00:07;;;;;;;1.38;1.27;;;;;;;;;;5104747;28;20496;-77
2023/08/31 11:02:42;;;;;;;1.88;1.50;;;;;;;;;;5107917;28;20390;-77
2023/08/31 11:05:14;;;;;;;2.47;1.38;;;;;;;;;;5106349;28;20269;-77
2023/08/31 11:07:40;;;;;;;4.90;1.70;;;;;;;;;;5106084;27;20346;-77
2023/08/31 11:10:13;;;;;;;3.05;1.33;;;;;;;;;;5107731;28;20131;-77
2023/08/31 11:12:40;;;;;;;2.20;1.38;;;;;;;;;;5109229;27;20032;-77
2023/08/31 11:15:06;;;;;;;3.58;1.20;;;;;;;;;;5100005;28;20020;-77
2023/08/31 11:17:32;;;;;;;2.90;1.25;;;;;;;;;;5097130;28;20103;-77
2023/08/31 11:19:58;;;;;;;2.08;1.50;;;;;;;;;;5105906;28;20039;-77
2023/08/31 11:22:24;;;;;;;1.50;1.40;;;;;;;;;;5106695;28;20035;-77
2023/08/31 11:24:49;;;;;;;2.00;1.52;;;;;;;;;;5110440;28;20040;-77
2023/08/31 11:27:19;;;;;;;2.33;1.58;;;;;;;;;;5103428;28;20027;-75
2023/08/31 11:29:44;;;;;;;2.20;1.50;;;;;;;;;;5102422;28;20028;-78
2023/08/31 11:32:10;;;;;;;2.42;1.65;;;;;;;;;;5100208;28;20558;-77
2023/08/31 11:34:40;;;;;;;3.22;1.60;;;;;;;;;;5106882;28;20050;-78
2023/08/31 11:37:06;;;;;;;4.72;1.90;;;;;;;;;;5103936;28;20347;-78
2023/08/31 11:39:32;;;;;;;2.25;1.60;;;;;;;;;;5098657;28;20039;-77
2023/08/31 11:41:57;;;;;;;2.25;1.55;;;;;;;;;;5088043;28;20047;-78
2023/08/31 11:44:22;;;;;;;3.38;1.67;;;;;;;;;;5112201;28;20465;-78
2023/08/31 11:46:50;;;;;;;3.58;1.80;;;;;;;;;;5104530;28;20024;-78
2023/08/31 11:49:17;;;;;;;1.88;1.77;;;;;;;;;;5105402;28;20039;-78
2023/08/31 11:51:43;;;;;;;1.55;1.45;;;;;;;;;;5105147;28;20032;-76
2023/08/31 11:54:10;;;;;;;2.40;2.00;;;;;;;;;;5099194;28;20115;-77
2023/08/31 11:56:49;;;;;;;3.22;1.52;;;;;;;;;;5100291;28;20027;-78
2023/08/31 11:59:19;;;;;;;2.85;1.90;;;;;;;;;;5097416;28;20040;-77
2023/08/31 12:01:47;;;;;;;3.78;1.42;;;;;;;;;;5103774;28;20034;-78
2023/08/31 12:04:15;;;;;;;2.70;1.75;;;;;;;;;;5110797;28;20046;-77
2023/08/31 12:06:41;;;;;;;2.13;1.88;;;;;;;;;;5104096;28;20288;-78
2023/08/31 12:09:09;;;;;;;3.03;1.85;;;;;;;;;;5099273;28;20020;-77
2023/08/31 12:11:35;;;;;;;3.35;1.77;;;;;;;;;;5111336;28;20023;-77
2023/08/31 12:14:17;;;;;;;3.88;2.25;;;;;;;;;;5109565;28;20035;-78
2023/08/31 12:16:43;;;;;;;2.15;1.75;;;;;;;;;;5111952;28;20036;-78
2023/08/31 12:19:09;;;;;;;4.25;1.70;;;;;;;;;;5107610;28;20084;-78
2023/08/31 12:21:34;;;;;;;1.88;1.67;;;;;;;;;;5115959;28;20118;-78
2023/08/31 12:24:00;;;;;;;4.00;1.90;;;;;;;;;;5103285;28;20610;-77
2023/08/31 12:26:28;;;;;;;8.52;2.17;;;;;;;;;;5107938;28;20055;-78
2023/08/31 12:28:54;;;;;;;3.80;2.42;;;;;;;;;;5111416;28;20032;-77
2023/08/31 12:31:20;;;;;;;2.47;2.00;;;;;;;;;;5109921;27;20517;-77
2023/08/31 12:33:45;;;;;;;5.05;1.88;;;;;;;;;;5117281;28;20348;-78
2023/08/31 12:36:10;;;;;;;2.70;2.00;;;;;;;;;;5101534;28;20020;-78
2023/08/31 12:38:36;;;;;;;4.85;2.10;;;;;;;;;;5112105;28;20020;-77
2023/08/31 12:41:02;;;;;;;4.72;2.13;;;;;;;;;;5105626;28;20027;-78
2023/08/31 12:43:28;;;;;;;4.32;2.10;;;;;;;;;;5107431;28;20043;-77
2023/08/31 12:45:54;;;;;;;4.85;2.03;;;;;;;;;;5115175;27;20530;-78
2023/08/31 12:48:20;;;;;;;5.78;1.95;;;;;;;;;;5111142;28;20020;-78
2023/08/31 12:50:45;;;;;;;6.40;1.80;;;;;;;;;;5104087;28;20027;-77
2023/08/31 12:53:10;;;;;;;4.28;2.40;;;;;;;;;;5107166;28;20039;-78
2023/08/31 12:55:36;;;;;;;4.22;2.05;;;;;;;;;;5102122;28;20548;-78
2023/08/31 12:58:02;;;;;;;3.85;2.00;;;;;;;;;;5104530;28;20070;-78
2023/08/31 13:00:27;;;;;;;5.88;2.38;;;;;;;;;;5095603;28;20111;-77
2023/08/31 13:02:53;;;;;;;4.88;1.92;;;;;;;;;;5096017;28;20061;-78
2023/08/31 13:05:19;;;;;;;2.92;1.98;;;;;;;;;;5114354;28;20042;-78
2023/08/31 13:07:45;;;;;;;4.38;2.20;;;;;;;;;;5109910;28;20071;-78
2023/08/31 13:10:10;;;;;;;2.78;1.90;;;;;;;;;;5103820;28;20031;-78
2023/08/31 13:12:37;;;;;;;6.40;2.13;;;;;;;;;;5100950;28;20043;-77
2023/08/31 13:15:02;;;;;;;6.20;2.25;;;;;;;;;;5107983;28;20392;-77
2023/08/31 13:17:28;;;;;;;3.30;2.05;;;;;;;;;;5115662;28;20120;-76
2023/08/31 13:19:54;;;;;;;4.85;2.00;;;;;;;;;;5107859;28;20097;-78
2023/08/31 13:22:21;;;;;;;3.33;1.75;;;;;;;;;;5114557;28;20040;-77
2023/08/31 13:24:46;;;;;;;2.38;1.85;;;;;;;;;;5113474;28;20035;-77
2023/08/31 13:27:13;;;;;;;4.97;2.30;;;;;;;;;;5108695;28;20673;-77
2023/08/31 13:29:38;;;;;;;8.27;2.25;;;;;;;;;;5106814;28;20043;-76
2023/08/31 13:32:04;;;;;;;1.95;1.73;;;;;;;;;;5106470;28;20025;-78
2023/08/31 13:34:30;;;;;;;3.40;1.80;;;;;;;;;;5101698;28;20465;-77
2023/08/31 13:36:55;;;;;;;3.70;1.83;;;;;;;;;;5115328;28;20044;-77
2023/08/31 13:39:22;;;;;;;4.00;1.70;;;;;;;;;;5113342;28;20027;-77
2023/08/31 13:41:48;;;;;;;4.93;2.03;;;;;;;;;;5096507;28;20035;-77
2023/08/31 13:44:13;;;;;;;3.55;1.83;;;;;;;;;;5097926;28;20044;-77
2023/08/31 13:46:38;;;;;;;2.97;2.00;;;;;;;;;;5095524;28;20480;-78
2023/08/31 13:49:04;;;;;;;2.05;1.70;;;;;;;;;;5098473;28;20042;-78
2023/08/31 13:51:30;;;;;;;6.45;2.10;;;;;;;;;;5106932;28;20073;-77
2023/08/31 13:53:55;;;;;;;3.63;1.73;;;;;;;;;;5098738;28;20031;-78
2023/08/31 13:56:21;;;;;;;4.00;1.88;;;;;;;;;;5100185;28;20042;-79
2023/08/31 13:58:46;;;;;;;3.15;1.75;;;;;;;;;;5106721;28;20042;-78
2023/08/31 14:01:13;;;;;;;6.57;1.83;;;;;;;;;;5096004;28;20036;-78
2023/08/31 14:03:38;;;;;;;2.88;1.75;;;;;;;;;;5080755;28;20040;-79
2023/08/31 14:06:03;;;;;;;2.83;1.98;;;;;;;;;;5103022;28;20027;-78
2023/08/31 14:08:29;;;;;;;3.30;2.25;;;;;;;;;;5112094;28;20049;-77
2023/08/31 14:10:55;;;;;;;2.03;1.60;;;;;;;;;;5101894;28;20036;-78
2023/08/31 14:13:21;;;;;;;3.17;1.90;;;;;;;;;;5116377;28;20371;-77
2023/08/31 14:15:46;;;;;;;3.22;1.70;;;;;;;;;;5101363;28;20039;-78
2023/08/31 14:18:13;;;;;;;3.10;1.85;;;;;;;;;;5104852;27;20015;-79
2023/08/31 14:20:38;;;;;;;3.38;1.60;;;;;;;;;;5115251;28;20024;-79
2023/08/31 14:23:04;;;;;;;4.38;1.75;;;;;;;;;;5109430;28;20036;-77
2023/08/31 14:25:37;;;;;;;3.10;1.75;;;;;;;;;;5113261;28;20040;-78
2023/08/31 14:28:03;;;;;;;4.57;2.13;;;;;;;;;;5111403;28;20113;-78
2023/08/31 14:30:28;;;;;;;1.90;1.60;;;;;;;;;;5106332;28;20390;-78
2023/08/31 14:32:53;;;;;;;3.05;1.80;;;;;;;;;;5116842;28;20050;-78
2023/08/31 14:35:19;;;;;;;4.03;2.17;;;;;;;;;;5116784;28;20035;-77
2023/08/31 14:37:44;;;;;;;2.50;1.90;;;;;;;;;;5112838;28;20042;-77
2023/08/31 14:40:10;;;;;;;5.57;2.15;;;;;;;;;;5115719;28;20031;-77